Stoughstown, Pennsylvania
Current Conditions -  °F | °C
As of 8:53 PM on Thursday 20 Nov 2014 (Local Time) from KRYT Reporting Station
Clear Clear  
Wind Chill: 26°   Ceiling: Unl
Heat Index: 32°   Visibility: 10mi
Dew Point:   Wind: 6mph
Humidity: 38%   Direction: NA
Pressure: 30.02"   Gusts: NA
Location:  40.0414°N, 77.4967°W
Report Text: KRYT 210153Z AUTO VRB05KT 10SM CLR 00/M13 A3002 RMK AO2 SLP180 T00001128 $
Loading
Personal Weather Stations






























Interactive Weather Map New forecast layout! Learn more

10-Day Weather Forecast

Advertisements
Track Severe Weather on mobile